Time;durP1;ratioP1;P1;durP2;ratioP2;P2;SDS_P1;SDS_P2;PMS_P1;PMS_P2;Temp;Humidity;BMP_temperature;BMP_pressure;BME280_temperature;BME280_humidity;BME280_pressure;Samples;Min_cycle;Max_cycle;Signal;HPM_P1;HPM_P2
2022/02/23 00:01:19;;;;;;;36.97;15.30;;;;;;;6.23;84.77;101717.47;5055708;28;20060;-69
2022/02/23 00:03:46;;;;;;;31.92;14.55;;;;;;;6.11;84.97;101719.97;5071826;28;20044;-69
2022/02/23 00:06:13;;;;;;;42.95;14.50;;;;;;;6.23;84.79;101728.84;5073196;28;20048;-69
2022/02/23 00:08:40;;;;;;;36.83;13.52;;;;;;;6.26;83.79;101727.81;5036528;28;20044;-70
2022/02/23 00:11:06;;;;;;;41.50;16.13;;;;;;;6.21;84.53;101722.00;5051741;28;20045;-69
2022/02/23 00:13:34;;;;;;;34.38;13.35;;;;;;;6.14;83.71;101735.56;5052708;28;20132;-69
2022/02/23 00:16:00;;;;;;;32.88;12.27;;;;;;;6.13;83.93;101731.25;5051518;28;20041;-69
2022/02/23 00:18:27;;;;;;;27.98;13.50;;;;;;;6.24;83.58;101738.44;5061479;28;20059;-69
2022/02/23 00:20:54;;;;;;;30.58;14.30;;;;;;;6.16;83.79;101740.72;5055708;28;20469;-70
2022/02/23 00:23:21;;;;;;;30.63;13.07;;;;;;;6.21;83.60;101751.81;5072564;28;20063;-69
2022/02/23 00:25:47;;;;;;;31.08;13.07;;;;;;;6.15;83.70;101750.44;5072354;28;20048;-70
2022/02/23 00:28:15;;;;;;;37.60;13.45;;;;;;;6.19;84.08;101756.34;5071680;28;20381;-69
2022/02/23 00:30:44;;;;;;;32.42;14.60;;;;;;;6.18;84.00;101757.28;5071546;28;20558;-69
2022/02/23 00:33:11;;;;;;;36.95;13.77;;;;;;;6.28;82.80;101755.75;5056061;28;20043;-69
2022/02/23 00:35:37;;;;;;;34.35;14.05;;;;;;;6.20;83.65;101754.53;5051542;28;20045;-69
2022/02/23 00:38:04;;;;;;;35.65;14.27;;;;;;;6.04;84.23;101755.56;5052927;28;20071;-69
2022/02/23 00:40:31;;;;;;;29.98;12.82;;;;;;;6.03;84.55;101763.56;5057057;28;20051;-69
2022/02/23 00:42:58;;;;;;;32.25;13.18;;;;;;;6.04;84.18;101765.22;5071616;28;20044;-69
2022/02/23 00:45:25;;;;;;;34.30;11.32;;;;;;;6.00;83.81;101761.94;5075435;28;20471;-69
2022/02/23 00:47:52;;;;;;;32.30;8.45;;;;;;;5.94;84.16;101772.88;5067469;28;20095;-69
2022/02/23 00:50:19;;;;;;;19.27;6.45;;;;;;;5.93;84.51;101779.06;5052515;28;20041;-69
2022/02/23 00:52:46;;;;;;;29.95;6.13;;;;;;;6.00;83.97;101782.19;5019097;28;20412;-69
2022/02/23 00:55:12;;;;;;;22.50;4.45;;;;;;;6.09;82.61;101778.97;5034694;28;20140;-69
2022/02/23 00:57:39;;;;;;;23.85;4.00;;;;;;;6.09;83.01;101774.56;5051336;28;20045;-69
2022/02/23 01:00:07;;;;;;;29.70;4.18;;;;;;;6.02;82.69;101788.19;5034958;28;20417;-69
2022/02/23 01:02:33;;;;;;;19.85;3.50;;;;;;;5.90;82.71;101780.13;5052131;28;20048;-69
2022/02/23 01:05:00;;;;;;;23.80;4.80;;;;;;;5.80;83.47;101783.44;5038628;28;20505;-69
2022/02/23 01:07:27;;;;;;;26.02;4.80;;;;;;;5.80;83.42;101783.44;5058468;28;20041;-69
2022/02/23 01:09:54;;;;;;;30.83;7.03;;;;;;;5.79;83.99;101790.50;5054947;28;20056;-69
2022/02/23 01:12:21;;;;;;;25.85;7.22;;;;;;;5.68;83.82;101785.06;5052289;28;20052;-70
2022/02/23 01:14:48;;;;;;;35.10;9.60;;;;;;;5.73;84.18;101796.13;5052486;28;20456;-69
2022/02/23 01:17:15;;;;;;;36.22;12.13;;;;;;;5.75;84.02;101800.38;5050652;28;20452;-69
2022/02/23 01:19:42;;;;;;;34.65;12.68;;;;;;;5.76;83.96;101803.84;5018912;28;20056;-69
2022/02/23 01:22:09;;;;;;;34.88;14.55;;;;;;;5.66;83.85;101814.13;5052403;28;20052;-69
2022/02/23 01:24:35;;;;;;;38.55;14.70;;;;;;;5.80;83.41;101817.66;5052382;28;20045;-69
2022/02/23 01:27:02;;;;;;;37.25;15.13;;;;;;;5.65;83.27;101816.84;5052991;28;20070;-69
2022/02/23 01:29:29;;;;;;;35.53;14.57;;;;;;;5.64;83.52;101810.75;5054906;28;20094;-69
2022/02/23 01:31:55;;;;;;;33.53;14.27;;;;;;;5.74;82.76;101822.38;5055323;28;20044;-69
2022/02/23 01:34:35;;;;;;;36.30;14.52;;;;;;;5.62;83.76;101819.66;5055368;28;20478;-70
2022/02/23 01:37:14;;;;;;;30.60;13.32;;;;;;;5.67;82.19;101831.59;5054981;28;20120;-70
2022/02/23 01:39:41;;;;;;;36.78;13.77;;;;;;;5.63;82.88;101824.00;5054973;28;20041;-70
2022/02/23 01:42:08;;;;;;;32.13;13.02;;;;;;;5.62;82.43;101831.06;5054396;28;20037;-70
2022/02/23 01:44:35;;;;;;;34.38;13.60;;;;;;;5.52;83.63;101841.28;5049583;28;20045;-68
2022/02/23 01:47:02;;;;;;;39.55;14.60;;;;;;;5.52;83.33;101832.56;5055474;28;20123;-69
2022/02/23 01:49:29;;;;;;;30.65;12.80;;;;;;;5.65;81.89;101840.53;5074050;28;20063;-70
2022/02/23 01:51:56;;;;;;;34.28;9.40;;;;;;;5.62;82.23;101846.84;5074810;28;20120;-70
2022/02/23 01:54:23;;;;;;;22.30;8.05;;;;;;;5.61;81.59;101849.56;5075796;28;20045;-70
2022/02/23 01:56:50;;;;;;;24.48;7.38;;;;;;;5.47;82.20;101845.97;5075205;28;20040;-68
2022/02/23 01:59:17;;;;;;;28.60;6.78;;;;;;;5.54;81.44;101852.56;5075525;28;20390;-68
2022/02/23 02:01:44;;;;;;;25.40;8.55;;;;;;;5.59;80.94;101852.28;5074537;28;20040;-68
2022/02/23 02:04:11;;;;;;;30.63;11.40;;;;;;;5.42;82.46;101860.38;5075648;28;20064;-70
2022/02/23 02:06:37;;;;;;;30.27;11.10;;;;;;;5.42;81.48;101866.50;5041038;28;20045;-70
2022/02/23 02:09:04;;;;;;;38.42;11.95;;;;;;;5.30;82.05;101860.16;5075701;28;20086;-70
2022/02/23 02:11:31;;;;;;;25.60;12.13;;;;;;;5.35;82.52;101865.16;5075404;28;20048;-70
2022/02/23 02:13:57;;;;;;;24.35;11.60;;;;;;;5.36;81.58;101862.41;5075718;28;20489;-70
2022/02/23 02:16:24;;;;;;;33.47;11.82;;;;;;;5.23;82.13;101861.47;5075248;28;20086;-70
2022/02/23 02:18:51;;;;;;;29.33;11.05;;;;;;;5.17;82.22;101865.31;5040793;28;20040;-70
2022/02/23 02:21:18;;;;;;;27.30;8.23;;;;;;;5.30;82.37;101873.31;5054193;28;20456;-70
2022/02/23 02:23:45;;;;;;;22.50;8.00;;;;;;;5.30;82.04;101880.38;5055338;28;20041;-70
2022/02/23 02:26:11;;;;;;;26.00;6.53;;;;;;;5.14;82.45;101878.66;5070129;28;20555;-70
2022/02/23 02:28:38;;;;;;;20.55;5.65;;;;;;;5.13;82.89;101874.34;5054745;28;20123;-68
2022/02/23 02:31:05;;;;;;;21.00;4.25;;;;;;;5.09;83.17;101874.59;5037503;28;20036;-68
2022/02/23 02:33:31;;;;;;;14.80;3.72;;;;;;;5.08;83.06;101875.56;5053865;28;20485;-69
2022/02/23 02:35:58;;;;;;;20.30;3.05;;;;;;;5.07;83.26;101877.31;5054697;28;20744;-69
2022/02/23 02:38:25;;;;;;;26.25;3.30;;;;;;;5.06;83.55;101875.63;5020507;28;20036;-69
2022/02/23 02:40:52;;;;;;;16.58;3.65;;;;;;;4.84;84.19;101872.56;5054614;28;20056;-69
2022/02/23 02:43:20;;;;;;;28.02;3.33;;;;;;;4.89;83.75;101868.72;5054332;28;20056;-69
2022/02/23 02:45:47;;;;;;;20.15;3.90;;;;;;;4.96;83.29;101872.69;5036436;28;20065;-69
2022/02/23 02:48:14;;;;;;;17.98;3.20;;;;;;;5.00;83.30;101878.63;5063305;28;20404;-69
2022/02/23 02:50:40;;;;;;;19.90;2.95;;;;;;;5.02;83.31;101883.78;5074204;28;20044;-69
2022/02/23 02:53:07;;;;;;;23.33;3.33;;;;;;;4.83;83.52;101884.88;5074013;28;20037;-69
2022/02/23 02:55:34;;;;;;;18.52;3.40;;;;;;;4.72;84.34;101896.00;5074211;28;20092;-69
2022/02/23 02:58:01;;;;;;;17.10;3.83;;;;;;;4.65;84.95;101889.41;5072887;28;20037;-69
2022/02/23 03:00:27;;;;;;;25.25;3.78;;;;;;;4.64;84.58;101895.59;5074352;28;20094;-69
2022/02/23 03:02:54;;;;;;;17.38;3.08;;;;;;;4.47;85.23;101888.66;5074150;28;20414;-69
2022/02/23 03:05:21;;;;;;;17.05;3.10;;;;;;;4.52;85.31;101899.75;5074055;28;20515;-69
2022/02/23 03:07:47;;;;;;;15.65;3.28;;;;;;;4.51;84.82;101897.22;5072907;28;20393;-69
2022/02/23 03:10:14;;;;;;;15.55;3.45;;;;;;;4.35;85.74;101894.63;5074160;28;20466;-70
2022/02/23 03:12:41;;;;;;;18.02;2.78;;;;;;;4.33;86.29;101901.72;5076081;28;20056;-69
2022/02/23 03:15:08;;;;;;;21.75;2.88;;;;;;;4.30;85.67;101897.47;5077113;28;20044;-69
2022/02/23 03:17:35;;;;;;;21.85;3.25;;;;;;;4.31;85.78;101903.56;5073115;28;20488;-69
2022/02/23 03:20:02;;;;;;;22.80;2.90;;;;;;;4.29;85.50;101908.06;5073089;28;20040;-69
2022/02/23 03:22:30;;;;;;;20.42;3.45;;;;;;;4.34;85.95;101914.75;5073882;28;20501;-69
2022/02/23 03:24:57;;;;;;;15.80;3.10;;;;;;;4.36;86.07;101914.69;5073771;28;20068;-69
2022/02/23 03:27:24;;;;;;;19.95;3.40;;;;;;;4.29;86.12;101918.59;5052551;28;20049;-69
2022/02/23 03:29:50;;;;;;;25.67;4.22;;;;;;;4.25;86.08;101917.91;5019939;28;20053;-68
2022/02/23 03:32:17;;;;;;;18.27;3.42;;;;;;;4.28;86.13;101919.53;5052644;28;20045;-68
2022/02/23 03:34:44;;;;;;;21.35;3.17;;;;;;;4.24;85.83;101929.34;5052965;28;20041;-70
2022/02/23 03:37:11;;;;;;;19.80;3.60;;;;;;;4.34;85.84;101932.31;5053388;28;20490;-69
2022/02/23 03:39:39;;;;;;;16.75;2.85;;;;;;;4.20;85.50;101941.81;5053823;28;20045;-69
2022/02/23 03:42:06;;;;;;;29.40;3.90;;;;;;;4.28;85.92;101936.13;5053362;28;20045;-69
2022/02/23 03:44:35;;;;;;;18.95;3.47;;;;;;;4.19;85.94;101942.72;5053478;28;20519;-69
2022/02/23 03:47:02;;;;;;;16.83;3.50;;;;;;;4.26;86.03;101942.38;5052072;28;20133;-69
2022/02/23 03:49:29;;;;;;;23.75;4.10;;;;;;;4.20;85.90;101949.69;5053532;28;20048;-69
2022/02/23 03:51:56;;;;;;;17.27;3.08;;;;;;;4.18;86.54;101955.94;5073448;28;20044;-69
2022/02/23 03:54:22;;;;;;;22.92;3.47;;;;;;;4.27;86.49;101960.69;5073497;28;20045;-69
2022/02/23 03:56:49;;;;;;;23.27;3.80;;;;;;;4.26;86.06;101966.91;5073034;28;20044;-69
2022/02/23 03:59:16;;;;;;;21.55;4.05;;;;;;;4.25;85.87;101965.19;5073150;28;20044;-69
2022/02/23 04:01:46;;;;;;;22.95;3.55;;;;;;;4.21;85.75;101971.53;5073405;28;20041;-69
2022/02/23 04:04:15;;;;;;;25.02;3.45;;;;;;;4.02;86.39;101979.53;5072136;28;20041;-69
2022/02/23 04:06:42;;;;;;;19.98;3.35;;;;;;;4.13;86.13;101973.72;5072889;28;20081;-69
2022/02/23 04:09:10;;;;;;;16.42;3.05;;;;;;;4.14;86.20;101985.94;5073175;28;20044;-68
2022/02/23 04:11:37;;;;;;;22.13;3.33;;;;;;;4.18;86.20;101985.69;5073020;28;20048;-69
2022/02/23 04:14:05;;;;;;;21.08;3.95;;;;;;;4.15;85.75;102006.03;5072102;28;20051;-68
2022/02/23 04:16:33;;;;;;;25.88;4.63;;;;;;;4.18;85.91;102004.09;5072838;28;20044;-69
2022/02/23 04:19:00;;;;;;;25.42;4.40;;;;;;;4.02;85.77;102005.78;5073047;28;20037;-69
2022/02/23 04:21:27;;;;;;;24.67;5.63;;;;;;;4.10;86.11;102008.88;5071880;28;20086;-69
2022/02/23 04:23:55;;;;;;;19.95;4.05;;;;;;;4.12;86.08;102016.69;5071842;28;20041;-68
2022/02/23 04:26:22;;;;;;;18.52;3.97;;;;;;;3.96;86.37;102014.00;5065925;28;20378;-69
2022/02/23 04:28:49;;;;;;;23.02;3.90;;;;;;;3.97;86.43;102018.34;5051664;28;20033;-69
2022/02/23 04:31:19;;;;;;;15.40;3.47;;;;;;;3.95;86.64;102020.22;5051866;28;20049;-69
2022/02/23 04:33:48;;;;;;;23.48;3.75;;;;;;;3.98;85.53;102028.78;5035815;28;20041;-69
2022/02/23 04:36:16;;;;;;;19.13;4.07;;;;;;;3.95;86.16;102034.19;5051386;28;20072;-69
2022/02/23 04:38:42;;;;;;;17.13;3.47;;;;;;;3.97;86.05;102027.06;5035124;28;20037;-69
2022/02/23 04:41:09;;;;;;;18.50;3.25;;;;;;;3.98;86.13;102030.53;5051274;28;20426;-69
2022/02/23 04:43:36;;;;;;;19.05;3.63;;;;;;;3.90;85.92;102027.47;5051104;28;20037;-69
2022/02/23 04:46:06;;;;;;;16.13;4.10;;;;;;;3.94;86.17;102037.72;5052092;28;20079;-68
2022/02/23 04:48:35;;;;;;;24.10;4.50;;;;;;;4.00;85.39;102041.78;5058819;28;20476;-68
2022/02/23 04:51:02;;;;;;;19.95;4.05;;;;;;;4.00;85.55;102044.41;5055106;28;20036;-68
2022/02/23 04:53:29;;;;;;;20.15;3.45;;;;;;;3.88;86.05;102045.06;5072187;28;20048;-68
2022/02/23 04:55:56;;;;;;;25.55;4.50;;;;;;;3.75;86.47;102044.84;5054992;28;20040;-68
2022/02/23 04:58:23;;;;;;;22.90;3.92;;;;;;;3.70;86.94;102052.09;5072208;28;20037;-68
2022/02/23 05:00:50;;;;;;;19.48;4.43;;;;;;;3.62;86.67;102061.22;5072923;28;20076;-69
2022/02/23 05:03:17;;;;;;;29.58;4.10;;;;;;;3.63;86.52;102062.06;5076439;28;20519;-68
2022/02/23 05:05:45;;;;;;;23.15;4.40;;;;;;;3.65;86.54;102060.19;5076589;28;20504;-68
2022/02/23 05:08:13;;;;;;;23.17;4.53;;;;;;;3.53;86.79;102063.44;5075417;28;20090;-68
2022/02/23 05:10:40;;;;;;;22.23;3.80;;;;;;;3.59;87.02;102071.84;5058987;28;20090;-68
2022/02/23 05:13:08;;;;;;;34.95;5.10;;;;;;;3.52;86.95;102059.13;5058571;28;20106;-69
2022/02/23 05:15:36;;;;;;;22.90;4.15;;;;;;;3.62;86.70;102066.47;5076455;28;20052;-69
2022/02/23 05:18:06;;;;;;;23.60;3.70;;;;;;;3.44;87.13;102059.50;5076141;28;20116;-69
2022/02/23 05:20:34;;;;;;;23.15;4.20;;;;;;;3.54;86.60;102060.72;5077054;28;20040;-69
2022/02/23 05:23:05;;;;;;;18.38;3.65;;;;;;;3.44;86.89;102062.13;5078134;28;20052;-69
2022/02/23 05:25:33;;;;;;;27.17;4.43;;;;;;;3.36;86.71;102065.09;5065227;28;20041;-69
2022/02/23 05:28:00;;;;;;;18.10;3.92;;;;;;;3.36;87.57;102067.72;5038213;28;20055;-70
2022/02/23 05:30:27;;;;;;;18.00;4.15;;;;;;;3.23;86.98;102066.63;5054871;28;20071;-69
2022/02/23 05:32:54;;;;;;;19.65;3.90;;;;;;;3.41;87.22;102070.97;5038201;28;20135;-69
2022/02/23 05:35:21;;;;;;;23.88;4.53;;;;;;;3.33;87.69;102074.91;5038305;28;20041;-69
2022/02/23 05:37:47;;;;;;;21.05;4.00;;;;;;;3.21;87.97;102073.72;5038379;28;20507;-70
2022/02/23 05:40:15;;;;;;;22.48;4.20;;;;;;;3.17;87.63;102074.81;5073843;28;20098;-69
2022/02/23 05:42:42;;;;;;;27.40;4.53;;;;;;;3.20;87.83;102082.50;5074311;28;20404;-70
2022/02/23 05:45:09;;;;;;;22.40;4.25;;;;;;;3.19;87.19;102092.16;5074272;28;20041;-69
2022/02/23 05:47:36;;;;;;;18.08;4.47;;;;;;;3.08;87.53;102092.66;5069550;28;20090;-69
2022/02/23 05:50:04;;;;;;;18.10;4.40;;;;;;;3.12;87.01;102100.41;5075804;28;20101;-70
2022/02/23 05:52:31;;;;;;;18.40;4.10;;;;;;;3.19;87.88;102109.69;5057969;28;20048;-70
2022/02/23 05:54:58;;;;;;;18.67;4.18;;;;;;;3.10;88.10;102104.88;5065204;28;20504;-69
2022/02/23 05:57:25;;;;;;;15.75;4.28;;;;;;;3.02;87.39;102100.84;5074384;28;20049;-69
2022/02/23 05:59:51;;;;;;;19.83;4.45;;;;;;;3.02;87.89;102107.81;5074632;28;20044;-70
2022/02/23 06:02:18;;;;;;;24.13;5.10;;;;;;;3.01;88.13;102108.75;5057961;28;20408;-70
2022/02/23 06:04:45;;;;;;;23.02;4.20;;;;;;;2.99;88.00;102108.00;5067324;28;20082;-70
2022/02/23 06:07:14;;;;;;;23.63;5.07;;;;;;;2.94;88.14;102107.34;5057589;28;20060;-70
2022/02/23 06:09:40;;;;;;;27.20;4.75;;;;;;;2.82;89.01;102103.50;5074074;28;20040;-70
2022/02/23 06:12:08;;;;;;;19.20;5.20;;;;;;;2.85;88.41;102098.13;5074168;28;20048;-69
2022/02/23 06:14:36;;;;;;;27.88;4.97;;;;;;;2.85;88.63;102100.75;5075233;28;20064;-69
2022/02/23 06:17:03;;;;;;;24.27;4.82;;;;;;;2.81;89.07;102110.53;5075008;28;20041;-68
2022/02/23 06:19:30;;;;;;;21.38;4.32;;;;;;;2.83;88.84;102119.16;5073779;28;20043;-68
2022/02/23 06:21:57;;;;;;;22.05;5.78;;;;;;;2.78;88.60;102118.53;5074111;28;20047;-68
2022/02/23 06:24:24;;;;;;;23.48;4.65;;;;;;;2.76;88.75;102127.38;5060711;28;20045;-68
2022/02/23 06:26:52;;;;;;;30.40;5.20;;;;;;;2.84;88.14;102120.88;5053475;28;20520;-69
2022/02/23 06:29:20;;;;;;;20.00;5.13;;;;;;;2.95;88.10;102119.50;5068163;28;20072;-68
2022/02/23 06:32:07;;;;;;;19.17;4.38;;;;;;;2.82;87.72;102117.47;5074817;28;20040;-68
2022/02/23 06:34:35;;;;;;;31.90;5.20;;;;;;;2.80;87.82;102126.31;5057131;28;20037;-68
2022/02/23 06:37:03;;;;;;;23.23;4.70;;;;;;;2.86;87.98;102128.69;5057134;28;20075;-68
2022/02/23 06:39:31;;;;;;;19.60;5.32;;;;;;;2.85;88.29;102119.94;5056739;28;20051;-68
2022/02/23 06:42:00;;;;;;;26.58;5.53;;;;;;;2.86;88.59;102134.75;5072518;28;20123;-70
2022/02/23 06:44:28;;;;;;;23.45;5.55;;;;;;;2.92;88.05;102125.75;5073116;28;20048;-68
2022/02/23 06:46:57;;;;;;;19.55;5.03;;;;;;;2.96;88.16;102129.09;5060826;28;20515;-68
2022/02/23 06:49:26;;;;;;;26.40;5.75;;;;;;;2.86;88.43;102131.28;5053725;28;20577;-70
2022/02/23 06:51:58;;;;;;;23.45;5.15;;;;;;;2.85;88.48;102138.28;5040176;28;20106;-68
2022/02/23 06:54:28;;;;;;;22.75;5.38;;;;;;;2.74;88.66;102137.94;5057519;28;20063;-69
2022/02/23 06:56:55;;;;;;;26.27;5.38;;;;;;;2.69;88.71;102146.00;5060363;28;20136;-70
2022/02/23 06:59:21;;;;;;;24.17;5.38;;;;;;;2.74;88.70;102147.56;5072777;28;20036;-69
2022/02/23 07:01:48;;;;;;;25.55;5.57;;;;;;;2.89;89.65;102136.38;5056719;28;20044;-68
2022/02/23 07:04:15;;;;;;;23.73;5.68;;;;;;;3.03;88.69;102141.84;5060967;28;20045;-68
2022/02/23 07:06:43;;;;;;;24.73;6.25;;;;;;;3.02;88.63;102147.16;5073347;28;20057;-68
2022/02/23 07:09:10;;;;;;;29.30;5.88;;;;;;;2.93;89.16;102150.19;5072942;28;20064;-68
2022/02/23 07:11:37;;;;;;;28.13;5.85;;;;;;;2.97;88.81;102150.00;5074155;28;20127;-68
2022/02/23 07:14:05;;;;;;;23.30;5.85;;;;;;;3.11;88.89;102153.75;5073802;28;20142;-68
2022/02/23 07:16:32;;;;;;;27.88;6.22;;;;;;;3.18;88.29;102150.75;5074114;28;20052;-68
2022/02/23 07:18:59;;;;;;;31.40;8.07;;;;;;;3.10;89.08;102152.06;5073561;28;20125;-68
2022/02/23 07:21:26;;;;;;;22.40;6.35;;;;;;;3.12;88.97;102153.69;5073583;28;20125;-68
2022/02/23 07:23:53;;;;;;;27.08;5.88;;;;;;;3.19;89.46;102156.88;5052755;28;20075;-68
2022/02/23 07:26:20;;;;;;;20.55;5.45;;;;;;;3.18;89.66;102158.63;5052901;28;20144;-69
2022/02/23 07:28:47;;;;;;;20.40;5.35;;;;;;;3.30;88.70;102165.09;5032385;28;20041;-68
2022/02/23 07:31:17;;;;;;;22.95;5.35;;;;;;;3.40;89.07;102169.00;5032893;28;20053;-69
2022/02/23 07:33:45;;;;;;;25.67;5.85;;;;;;;3.54;88.76;102165.69;5032524;28;20413;-69
2022/02/23 07:36:13;;;;;;;26.98;5.47;;;;;;;3.56;88.84;102169.09;5036759;28;20042;-69
2022/02/23 07:38:41;;;;;;;18.73;5.68;;;;;;;3.65;88.83;102175.69;5035505;28;20129;-69
2022/02/23 07:41:11;;;;;;;29.35;7.13;;;;;;;3.74;88.10;102183.09;5033118;28;20045;-69
2022/02/23 07:43:58;;;;;;;25.92;5.85;;;;;;;3.82;87.43;102185.34;5005302;28;20052;-69
2022/02/23 07:46:25;;;;;;;27.05;5.57;;;;;;;3.85;87.85;102185.22;5016217;28;20059;-69
2022/02/23 07:48:58;;;;;;;30.70;7.07;;;;;;;3.92;87.72;102186.59;5025373;28;20046;-69
2022/02/23 07:51:25;;;;;;;21.67;5.75;;;;;;;4.02;87.36;102189.63;5033500;28;20076;-69
2022/02/23 07:53:54;;;;;;;23.80;6.32;;;;;;;4.07;87.44;102195.50;5015859;28;20518;-69
2022/02/23 07:56:22;;;;;;;31.08;6.05;;;;;;;4.19;86.11;102196.69;5032051;28;20041;-69
2022/02/23 07:58:50;;;;;;;28.00;6.07;;;;;;;4.24;86.13;102199.94;5033176;28;20046;-69
2022/02/23 08:01:34;;;;;;;31.92;6.95;;;;;;;4.37;85.29;102205.41;5032941;28;20513;-69
2022/02/23 08:04:02;;;;;;;34.58;6.68;;;;;;;4.41;85.26;102206.94;5033324;28;20042;-69
2022/02/23 08:06:30;;;;;;;22.98;6.25;;;;;;;4.58;84.77;102206.94;5050037;28;20048;-69
2022/02/23 08:08:57;;;;;;;32.97;6.70;;;;;;;4.61;84.64;102208.56;5019199;28;20087;-69
2022/02/23 08:11:25;;;;;;;29.15;6.72;;;;;;;4.70;84.51;102212.50;5035476;28;20049;-68
2022/02/23 08:13:58;;;;;;;29.77;6.93;;;;;;;4.75;84.66;102210.47;5052766;28;20238;-69
2022/02/23 08:19:31;;;;;;;24.08;6.28;;;;;;;4.99;83.02;102209.16;5036485;28;20492;-70
2022/02/23 08:22:10;;;;;;;21.63;5.90;;;;;;;4.98;83.52;102207.47;5029346;28;20383;-70
2022/02/23 08:24:39;;;;;;;23.45;5.70;;;;;;;5.20;82.35;102203.66;5028662;28;20049;-70
2022/02/23 08:27:08;;;;;;;23.95;6.70;;;;;;;5.89;80.27;102205.09;5066086;28;20052;-70
2022/02/23 08:29:36;;;;;;;26.20;6.13;;;;;;;6.85;76.07;102202.13;5067847;28;20040;-70
2022/02/23 08:32:05;;;;;;;35.72;6.53;;;;;;;7.02;75.36;102198.44;5055640;28;20095;-67
2022/02/23 08:34:31;;;;;;;30.92;6.43;;;;;;;6.59;76.92;102199.28;5051480;28;20044;-70
2022/02/23 08:36:58;;;;;;;31.08;7.07;;;;;;;6.50;77.62;102207.75;5062859;28;20052;-70
2022/02/23 08:39:25;;;;;;;25.90;6.38;;;;;;;6.37;78.29;102201.50;5064727;28;20056;-68
2022/02/23 08:41:54;;;;;;;24.40;5.35;;;;;;;6.21;77.87;102209.47;5070228;28;20123;-69
2022/02/23 08:44:21;;;;;;;38.35;7.55;;;;;;;6.17;78.42;102207.94;5084849;28;20393;-65
2022/02/23 08:46:49;;;;;;;24.90;5.93;;;;;;;6.22;78.93;102217.31;5050071;28;20056;-68
2022/02/23 08:49:16;;;;;;;22.95;5.85;;;;;;;6.24;78.91;102215.41;5064860;28;20037;-68
2022/02/23 08:51:46;;;;;;;20.15;5.53;;;;;;;6.30;78.42;102216.84;5052905;28;20442;-68
2022/02/23 08:54:15;;;;;;;21.75;4.70;;;;;;;6.30;79.11;102217.69;5038059;28;20119;-68
2022/02/23 08:56:42;;;;;;;25.20;5.43;;;;;;;6.28;79.13;102221.38;5062051;28;20048;-68
2022/02/23 08:59:09;;;;;;;19.10;5.05;;;;;;;6.37;78.50;102219.94;5071247;28;20040;-68
2022/02/23 09:01:35;;;;;;;17.85;5.20;;;;;;;6.39;78.84;102220.72;5070420;28;20386;-68
2022/02/23 09:04:02;;;;;;;19.90;4.68;;;;;;;6.55;78.01;102221.53;5070802;28;20032;-68
2022/02/23 09:06:33;;;;;;;19.33;4.95;;;;;;;6.52;78.31;102222.53;5070628;28;20086;-68
2022/02/23 09:09:02;;;;;;;26.50;5.60;;;;;;;6.57;77.73;102227.53;5062833;28;20111;-68
2022/02/23 09:11:29;;;;;;;20.30;4.85;;;;;;;6.55;77.53;102226.78;5059723;28;20163;-68
2022/02/23 09:13:56;;;;;;;26.55;5.38;;;;;;;6.55;78.92;102226.78;5069738;28;20044;-68
2022/02/23 09:16:25;;;;;;;23.48;5.53;;;;;;;6.78;77.53;102220.13;5075515;28;20060;-68
2022/02/23 09:18:52;;;;;;;29.27;5.32;;;;;;;6.75;77.68;102232.63;5050028;28;20037;-68
2022/02/23 09:21:19;;;;;;;20.98;4.60;;;;;;;6.70;78.48;102235.56;5052016;28;20102;-69
2022/02/23 09:23:46;;;;;;;24.25;5.45;;;;;;;6.83;77.65;102231.25;5070549;28;20119;-69
2022/02/23 09:26:14;;;;;;;29.15;4.90;;;;;;;6.89;78.55;102224.72;5061078;28;20059;-69
2022/02/23 09:28:41;;;;;;;26.40;5.25;;;;;;;7.03;76.63;102231.81;5050343;28;20136;-68
2022/02/23 09:31:10;;;;;;;26.40;4.85;;;;;;;7.20;77.13;102234.25;5027170;28;20509;-68
2022/02/23 09:33:37;;;;;;;23.25;5.07;;;;;;;7.24;75.70;102226.97;5018064;28;20140;-68
2022/02/23 09:36:05;;;;;;;24.23;5.90;;;;;;;7.22;75.48;102232.38;5054677;28;20102;-69
2022/02/23 09:38:32;;;;;;;23.50;4.75;;;;;;;7.23;74.32;102225.31;5071338;28;20048;-68
2022/02/23 09:41:03;;;;;;;32.58;6.28;;;;;;;7.26;76.54;102231.25;5071258;28;20135;-68
2022/02/23 09:43:31;;;;;;;27.13;4.57;;;;;;;7.29;75.93;102228.41;5066159;28;20068;-69
2022/02/23 09:45:58;;;;;;;27.83;5.40;;;;;;;7.37;74.61;102224.41;5071437;28;20064;-69
2022/02/23 09:48:28;;;;;;;20.75;4.63;;;;;;;7.38;74.52;102228.75;5075424;28;20070;-69
2022/02/23 09:50:56;;;;;;;23.02;4.78;;;;;;;7.49;73.77;102226.28;5088934;28;20416;-69
2022/02/23 09:53:23;;;;;;;20.05;4.43;;;;;;;7.55;73.42;102219.75;5075204;28;20040;-69
2022/02/23 09:55:56;;;;;;;17.67;4.32;;;;;;;7.46;73.43;102218.56;5071880;28;20036;-69
2022/02/23 09:58:24;;;;;;;19.63;4.40;;;;;;;7.49;73.82;102226.28;5074925;28;20123;-68
2022/02/23 10:00:54;;;;;;;25.17;4.72;;;;;;;7.65;73.98;102224.34;5027145;28;20045;-69
2022/02/23 10:03:21;;;;;;;34.95;5.28;;;;;;;7.72;73.74;102221.34;5069272;28;20068;-69
2022/02/23 10:05:48;;;;;;;29.20;5.07;;;;;;;7.85;73.03;102216.94;5069311;28;20246;-69
2022/02/23 10:08:15;;;;;;;23.50;4.43;;;;;;;7.81;73.32;102212.81;5062756;28;20052;-69
2022/02/23 10:11:01;;;;;;;19.70;4.22;;;;;;;8.04;73.51;102216.56;5053164;28;20045;-69
2022/02/23 10:13:27;;;;;;;24.42;4.90;;;;;;;8.11;71.04;102209.09;5043220;28;20041;-68
2022/02/23 10:15:58;;;;;;;18.60;4.32;;;;;;;8.10;70.73;102210.91;5072868;28;20037;-68
2022/02/23 10:18:35;;;;;;;55.65;20.42;;;;;;;8.23;72.30;102214.41;5064931;28;20051;-68
2022/02/23 10:21:02;;;;;;;22.98;4.65;;;;;;;8.36;70.58;102213.59;5070310;28;20092;-68
2022/02/23 10:23:31;;;;;;;22.35;4.70;;;;;;;8.43;69.43;102213.09;5070794;28;20078;-68
2022/02/23 10:26:02;;;;;;;25.08;4.70;;;;;;;8.67;69.47;102219.47;5067346;28;20045;-69
2022/02/23 10:28:32;;;;;;;20.00;4.60;;;;;;;8.62;69.04;102218.00;5057713;28;20048;-69
2022/02/23 10:31:04;;;;;;;25.75;5.40;;;;;;;8.65;68.16;102217.75;5062242;28;20053;-69
2022/02/23 10:33:34;;;;;;;23.23;4.78;;;;;;;8.59;68.74;102206.78;5047958;28;20059;-69
2022/02/23 10:36:21;;;;;;;22.75;4.35;;;;;;;8.82;68.35;102215.75;5068767;28;20501;-70
2022/02/23 10:38:51;;;;;;;21.60;4.63;;;;;;;8.86;69.55;102217.25;5060261;28;20040;-69
2022/02/23 10:41:27;;;;;;;21.52;3.95;;;;;;;8.96;66.57;102209.50;5062963;28;20081;-69
2022/02/23 10:43:54;;;;;;;27.35;4.68;;;;;;;9.01;66.18;102202.94;5043039;28;20131;-69
2022/02/23 10:46:23;;;;;;;23.98;4.20;;;;;;;8.95;66.57;102207.78;5039837;28;20085;-69
2022/02/23 10:48:55;;;;;;;17.92;4.28;;;;;;;8.92;67.41;102208.03;5070902;28;20047;-71
2022/02/23 10:51:25;;;;;;;22.20;4.43;;;;;;;8.97;68.39;102212.03;5068827;28;20101;-69
2022/02/23 10:53:53;;;;;;;24.23;4.65;;;;;;;9.14;68.27;102202.06;5037173;28;20056;-69
2022/02/23 10:56:25;;;;;;;18.00;3.70;;;;;;;9.35;66.91;102191.72;5066983;28;20037;-70
2022/02/23 10:59:10;;;;;;;18.63;3.90;;;;;;;9.68;64.62;102190.22;5067568;28;20044;-69
2022/02/23 11:01:40;;;;;;;20.23;4.68;;;;;;;9.82;64.72;102190.06;5060369;28;20551;-69
2022/02/23 11:04:09;;;;;;;21.33;3.45;;;;;;;9.98;60.68;102203.03;5066743;28;20095;-70
2022/02/23 11:06:36;;;;;;;20.75;3.35;;;;;;;10.28;61.25;102188.44;5068656;28;20044;-69
2022/02/23 11:09:05;;;;;;;21.38;3.10;;;;;;;10.62;57.66;102191.16;5066703;28;20055;-69
2022/02/23 11:11:33;;;;;;;15.07;3.30;;;;;;;11.74;56.16;102181.38;5050277;28;20051;-70
2022/02/23 11:14:01;;;;;;;26.55;3.72;;;;;;;13.11;51.61;102189.22;5030356;28;20106;-69
2022/02/23 11:16:31;;;;;;;21.67;2.80;;;;;;;13.90;46.68;102184.88;5052754;28;20163;-69
2022/02/23 11:18:59;;;;;;;19.35;2.85;;;;;;;15.01;42.29;102186.06;5031671;28;20052;-68
2022/02/23 11:21:31;;;;;;;16.83;2.55;;;;;;;16.21;38.90;102178.69;5030244;28;20080;-69
2022/02/23 11:24:00;;;;;;;;;;;;;;;18.23;37.18;102179.75;5059381;28;20052;-69
2022/02/23 11:26:30;;;;;;;18.25;3.05;;;;;;;16.92;36.38;102184.84;5067292;28;19924;-69
2022/02/23 11:29:20;;;;;;;10.77;2.17;;;;;;;16.55;36.19;102178.75;5065688;28;20131;-68
2022/02/23 11:31:50;;;;;;;16.17;2.88;;;;;;;17.32;35.70;102191.34;5050046;28;20120;-70